Time;durP1;ratioP1;P1;durP2;ratioP2;P2;SDS_P1;SDS_P2;PMS_P1;PMS_P2;Temp;Humidity;BMP_temperature;BMP_pressure;BME280_temperature;BME280_humidity;BME280_pressure;Samples;Min_cycle;Max_cycle;Signal;HPM_P1;HPM_P2
2024/03/16 00:02:15;;;;;;;0.55;0.38;;;;;;;;;;5042551;28;20021;-78
2024/03/16 00:04:43;;;;;;;0.38;0.38;;;;;;;;;;5043060;28;20096;-79
2024/03/16 00:07:18;;;;;;;0.30;0.30;;;;;;;;;;5043357;28;20483;-78
2024/03/16 00:09:45;;;;;;;0.30;0.30;;;;;;;;;;5048462;28;20048;-79
2024/03/16 00:12:11;;;;;;;0.50;0.20;;;;;;;;;;5050664;28;20053;-78
2024/03/16 00:14:37;;;;;;;0.40;0.40;;;;;;;;;;5051284;28;20081;-76
2024/03/16 00:17:04;;;;;;;0.30;0.30;;;;;;;;;;5057405;28;20025;-77
2024/03/16 00:19:31;;;;;;;0.30;0.30;;;;;;;;;;5046019;28;20017;-78
2024/03/16 00:21:57;;;;;;;0.20;0.20;;;;;;;;;;5044758;28;20029;-78
2024/03/16 00:24:25;;;;;;;0.80;0.60;;;;;;;;;;5039313;28;20022;-76
2024/03/16 00:26:52;;;;;;;2.08;0.63;;;;;;;;;;5051795;28;20032;-77
2024/03/16 00:29:18;;;;;;;0.30;0.30;;;;;;;;;;5043547;28;20096;-78
2024/03/16 00:31:44;;;;;;;1.15;0.60;;;;;;;;;;5047198;28;20014;-77
2024/03/16 00:34:10;;;;;;;0.70;0.55;;;;;;;;;;5050202;28;20036;-76
2024/03/16 00:36:37;;;;;;;0.55;0.50;;;;;;;;;;5051835;28;20025;-78
2024/03/16 00:39:14;;;;;;;1.30;0.60;;;;;;;;;;5061621;28;20087;-76
2024/03/16 00:41:40;;;;;;;0.93;0.60;;;;;;;;;;5043606;28;20029;-76
2024/03/16 00:44:08;;;;;;;1.20;0.60;;;;;;;;;;5060202;28;20041;-78
2024/03/16 00:46:34;;;;;;;0.40;0.40;;;;;;;;;;5055605;28;20029;-77
2024/03/16 00:49:00;;;;;;;1.85;0.50;;;;;;;;;;5043888;28;20026;-76
2024/03/16 00:51:29;;;;;;;1.15;0.57;;;;;;;;;;5043240;28;20105;-78
2024/03/16 00:53:56;;;;;;;0.85;0.40;;;;;;;;;;5039633;28;20017;-78
2024/03/16 00:56:23;;;;;;;1.10;0.40;;;;;;;;;;5048181;28;20045;-77
2024/03/16 00:58:49;;;;;;;0.73;0.50;;;;;;;;;;5058314;28;20017;-77
2024/03/16 01:01:15;;;;;;;0.75;0.60;;;;;;;;;;5054192;28;20025;-76
2024/03/16 01:03:41;;;;;;;1.58;1.17;;;;;;;;;;5054882;28;20025;-78
2024/03/16 01:06:09;;;;;;;1.50;0.75;;;;;;;;;;5042373;28;20042;-78
2024/03/16 01:08:35;;;;;;;1.42;0.60;;;;;;;;;;5045475;28;20487;-78
2024/03/16 01:11:02;;;;;;;0.98;0.50;;;;;;;;;;5052188;28;20081;-77
2024/03/16 01:13:28;;;;;;;1.58;0.68;;;;;;;;;;5060745;28;20093;-79
2024/03/16 01:15:54;;;;;;;1.33;0.75;;;;;;;;;;5044831;28;20125;-79
2024/03/16 01:18:20;;;;;;;1.33;0.80;;;;;;;;;;5053163;28;20079;-79
2024/03/16 01:20:46;;;;;;;0.60;0.50;;;;;;;;;;5047214;28;20619;-77
2024/03/16 01:23:13;;;;;;;0.75;0.60;;;;;;;;;;5047494;28;20026;-77
2024/03/16 01:25:39;;;;;;;1.00;0.65;;;;;;;;;;5050600;28;20265;-78
2024/03/16 01:28:05;;;;;;;0.90;0.80;;;;;;;;;;5048001;28;20044;-78
2024/03/16 01:30:31;;;;;;;1.00;0.60;;;;;;;;;;5044616;28;20105;-79
2024/03/16 01:32:58;;;;;;;1.20;0.82;;;;;;;;;;5040908;28;20112;-79
2024/03/16 01:35:24;;;;;;;0.98;0.50;;;;;;;;;;5041795;28;20021;-79
2024/03/16 01:37:51;;;;;;;0.85;0.60;;;;;;;;;;5040668;28;20088;-77
2024/03/16 01:40:24;;;;;;;0.60;0.50;;;;;;;;;;5041672;28;20017;-79
2024/03/16 01:42:50;;;;;;;1.05;0.50;;;;;;;;;;5040975;28;20088;-78
2024/03/16 01:45:16;;;;;;;0.50;0.50;;;;;;;;;;5040799;28;20515;-78
2024/03/16 01:47:48;;;;;;;1.30;0.70;;;;;;;;;;5044836;28;20149;-79
2024/03/16 01:50:23;;;;;;;1.05;0.70;;;;;;;;;;5048361;28;20021;-77
2024/03/16 01:52:49;;;;;;;0.50;0.50;;;;;;;;;;5033961;28;20044;-76
2024/03/16 01:55:16;;;;;;;0.50;0.50;;;;;;;;;;5043897;28;20037;-78
2024/03/16 01:57:42;;;;;;;0.75;0.63;;;;;;;;;;5043713;28;20017;-79
2024/03/16 02:00:11;;;;;;;0.40;0.40;;;;;;;;;;5054402;28;20021;-77
2024/03/16 02:02:44;;;;;;;0.85;0.47;;;;;;;;;;5051790;28;20021;-78
2024/03/16 02:05:12;;;;;;;2.17;0.30;;;;;;;;;;5051997;28;20021;-76
2024/03/16 02:07:39;;;;;;;0.90;0.40;;;;;;;;;;5062530;28;20041;-76
2024/03/16 02:10:08;;;;;;;2.15;0.55;;;;;;;;;;5055081;28;20029;-75
2024/03/16 02:12:35;;;;;;;0.95;0.40;;;;;;;;;;5051359;28;20049;-77
2024/03/16 02:15:02;;;;;;;0.35;0.30;;;;;;;;;;5050602;28;20032;-78
2024/03/16 02:17:28;;;;;;;0.32;0.32;;;;;;;;;;5043806;22;20045;-75
2024/03/16 02:19:54;;;;;;;0.45;0.45;;;;;;;;;;5038534;28;20100;-75
2024/03/16 02:22:21;;;;;;;0.38;0.38;;;;;;;;;;5033789;28;20051;-75
2024/03/16 02:24:47;;;;;;;0.55;0.50;;;;;;;;;;5035179;28;20034;-76
2024/03/16 02:27:13;;;;;;;0.30;0.30;;;;;;;;;;5033845;28;20025;-76
2024/03/16 02:29:39;;;;;;;1.45;0.60;;;;;;;;;;5033109;28;20044;-76
2024/03/16 02:32:07;;;;;;;0.22;0.22;;;;;;;;;;5038265;28;20013;-75
2024/03/16 02:34:33;;;;;;;0.93;0.40;;;;;;;;;;5050105;28;20037;-76
2024/03/16 02:37:00;;;;;;;0.75;0.30;;;;;;;;;;5033977;28;20048;-76
2024/03/16 02:39:26;;;;;;;0.38;0.20;;;;;;;;;;5031065;28;20231;-75
2024/03/16 02:41:55;;;;;;;0.15;0.15;;;;;;;;;;5029086;28;20029;-75
2024/03/16 02:44:22;;;;;;;0.28;0.20;;;;;;;;;;5032925;28;20555;-75
2024/03/16 02:46:49;;;;;;;0.63;0.20;;;;;;;;;;5011415;28;20080;-76
2024/03/16 02:49:15;;;;;;;0.13;0.13;;;;;;;;;;5034216;28;20021;-76
2024/03/16 02:51:41;;;;;;;0.30;0.30;;;;;;;;;;5030417;28;20022;-76
2024/03/16 02:54:09;;;;;;;1.17;0.30;;;;;;;;;;5034211;28;20022;-77
2024/03/16 02:56:36;;;;;;;0.30;0.17;;;;;;;;;;5032181;28;20048;-76
2024/03/16 02:59:02;;;;;;;0.10;0.00;;;;;;;;;;5031808;28;20018;-76
2024/03/16 03:01:28;;;;;;;0.10;0.10;;;;;;;;;;5010504;28;20108;-76
2024/03/16 03:03:54;;;;;;;0.47;0.20;;;;;;;;;;5027879;28;20028;-76
2024/03/16 03:06:20;;;;;;;0.10;0.03;;;;;;;;;;5031574;28;20097;-75
2024/03/16 03:08:47;;;;;;;0.10;0.10;;;;;;;;;;5028885;28;20018;-76
2024/03/16 03:11:14;;;;;;;0.10;0.10;;;;;;;;;;5013548;28;20021;-74
2024/03/16 03:13:40;;;;;;;0.10;0.10;;;;;;;;;;5030936;28;20123;-75
2024/03/16 03:16:06;;;;;;;0.17;0.10;;;;;;;;;;5031825;28;20510;-75
2024/03/16 03:18:32;;;;;;;0.47;0.13;;;;;;;;;;5033681;28;20464;-76
2024/03/16 03:20:59;;;;;;;0.32;0.10;;;;;;;;;;5031106;28;20024;-75
2024/03/16 03:23:25;;;;;;;0.00;0.00;;;;;;;;;;5029900;28;20025;-75
2024/03/16 03:25:51;;;;;;;0.10;0.10;;;;;;;;;;5023823;28;20029;-76
2024/03/16 03:28:17;;;;;;;0.10;0.05;;;;;;;;;;5031039;28;20476;-76
2024/03/16 03:30:43;;;;;;;0.00;0.00;;;;;;;;;;5029343;28;20029;-75
2024/03/16 03:33:10;;;;;;;0.00;0.00;;;;;;;;;;5027215;28;20030;-76
2024/03/16 03:35:37;;;;;;;0.08;0.05;;;;;;;;;;5012973;28;20025;-76
2024/03/16 03:38:03;;;;;;;0.00;0.00;;;;;;;;;;5029939;28;20236;-76
2024/03/16 03:40:30;;;;;;;0.00;0.00;;;;;;;;;;5011806;28;20376;-76
2024/03/16 03:43:00;;;;;;;0.13;0.10;;;;;;;;;;5013309;28;20025;-76
2024/03/16 03:45:50;;;;;;;0.00;0.00;;;;;;;;;;5012274;28;20356;-75
2024/03/16 03:50:48;;;;;;;0.03;0.03;;;;;;;;;;5030949;28;20030;-75
2024/03/16 03:53:15;;;;;;;1.85;0.00;;;;;;;;;;5010771;28;20018;-75
2024/03/16 03:55:42;;;;;;;0.30;0.00;;;;;;;;;;5029723;28;20036;-75
2024/03/16 03:58:08;;;;;;;0.10;0.00;;;;;;;;;;5031384;28;20026;-75
2024/03/16 04:00:34;;;;;;;0.00;0.00;;;;;;;;;;5022062;28;20373;-75
2024/03/16 04:03:01;;;;;;;0.00;0.00;;;;;;;;;;5014237;28;20452;-75
2024/03/16 04:05:27;;;;;;;0.10;0.10;;;;;;;;;;5023624;28;20033;-75
2024/03/16 04:07:54;;;;;;;0.10;0.10;;;;;;;;;;5034027;28;20021;-75
2024/03/16 04:10:20;;;;;;;0.05;0.05;;;;;;;;;;5005135;28;20026;-75
2024/03/16 04:12:46;;;;;;;0.00;0.00;;;;;;;;;;5020310;28;20483;-75
2024/03/16 04:15:12;;;;;;;0.05;0.05;;;;;;;;;;5025543;28;20451;-76
2024/03/16 04:17:38;;;;;;;0.00;0.00;;;;;;;;;;5021741;28;20044;-75
2024/03/16 04:20:10;;;;;;;0.00;0.00;;;;;;;;;;5021684;28;20053;-75
2024/03/16 04:22:39;;;;;;;0.00;0.00;;;;;;;;;;5023703;28;20022;-76
2024/03/16 04:25:11;;;;;;;0.13;0.00;;;;;;;;;;5017052;28;20407;-76
2024/03/16 04:27:38;;;;;;;;;;;;;;;;;;5015311;28;20072;-77
2024/03/16 04:30:08;;;;;;;0.10;0.10;;;;;;;;;;5019713;28;20091;-76
2024/03/16 04:32:35;;;;;;;0.13;0.00;;;;;;;;;;5023697;28;20030;-76
2024/03/16 04:35:01;;;;;;;0.03;0.00;;;;;;;;;;5028107;28;20056;-74
2024/03/16 04:37:28;;;;;;;0.00;0.00;;;;;;;;;;5044017;28;20082;-76
2024/03/16 04:39:55;;;;;;;0.10;0.00;;;;;;;;;;5014500;28;20021;-78
2024/03/16 04:42:21;;;;;;;0.00;0.00;;;;;;;;;;5024737;28;20112;-77
2024/03/16 04:44:48;;;;;;;0.03;0.00;;;;;;;;;;5031559;28;20026;-76
2024/03/16 04:47:14;;;;;;;0.08;0.08;;;;;;;;;;5023664;28;20032;-77
2024/03/16 04:49:40;;;;;;;0.00;0.00;;;;;;;;;;5031046;28;20065;-77
2024/03/16 04:52:07;;;;;;;0.10;0.08;;;;;;;;;;5012364;28;20030;-77
2024/03/16 04:54:33;;;;;;;0.00;0.00;;;;;;;;;;4995302;28;20076;-77
2024/03/16 04:56:59;;;;;;;0.00;0.00;;;;;;;;;;5004447;28;20025;-78
2024/03/16 04:59:25;;;;;;;0.38;0.00;;;;;;;;;;5009570;28;20117;-77
2024/03/16 05:01:52;;;;;;;0.00;0.00;;;;;;;;;;5016934;28;20024;-77
2024/03/16 05:04:18;;;;;;;0.00;0.00;;;;;;;;;;5023550;28;20033;-77
2024/03/16 05:06:44;;;;;;;0.00;0.00;;;;;;;;;;5020030;28;20037;-77
2024/03/16 05:09:10;;;;;;;0.00;0.00;;;;;;;;;;5018678;28;20054;-77
2024/03/16 05:11:37;;;;;;;0.10;0.03;;;;;;;;;;5016305;28;20037;-76
2024/03/16 05:14:07;;;;;;;0.00;0.00;;;;;;;;;;5026865;28;20030;-76
2024/03/16 05:16:33;;;;;;;0.08;0.00;;;;;;;;;;5019427;28;20044;-78
2024/03/16 05:19:02;;;;;;;0.00;0.00;;;;;;;;;;5014739;28;20021;-77
2024/03/16 05:21:29;;;;;;;0.00;0.00;;;;;;;;;;5002643;28;20030;-77
2024/03/16 05:23:55;;;;;;;0.43;0.00;;;;;;;;;;5020542;28;20420;-76
2024/03/16 05:26:25;;;;;;;0.05;0.05;;;;;;;;;;5012894;28;20054;-76
2024/03/16 05:28:51;;;;;;;0.00;0.00;;;;;;;;;;5013269;28;20109;-77
2024/03/16 05:31:17;;;;;;;0.00;0.00;;;;;;;;;;5012876;28;20051;-77
2024/03/16 05:33:43;;;;;;;0.00;0.00;;;;;;;;;;5028433;28;20081;-76
2024/03/16 05:36:12;;;;;;;0.10;0.00;;;;;;;;;;5016860;28;20101;-76
2024/03/16 05:38:39;;;;;;;0.00;0.00;;;;;;;;;;5017338;28;20021;-78
2024/03/16 05:41:06;;;;;;;1.00;0.10;;;;;;;;;;5019365;28;20022;-79
2024/03/16 05:43:33;;;;;;;0.00;0.00;;;;;;;;;;5025961;28;20022;-77
2024/03/16 05:46:00;;;;;;;0.00;0.00;;;;;;;;;;5027150;28;20038;-77
2024/03/16 05:48:27;;;;;;;0.00;0.00;;;;;;;;;;5036536;28;20612;-76
2024/03/16 05:50:53;;;;;;;0.10;0.10;;;;;;;;;;5031996;28;20045;-77
2024/03/16 05:53:20;;;;;;;0.00;0.00;;;;;;;;;;5041786;28;20145;-77
2024/03/16 05:55:46;;;;;;;0.10;0.05;;;;;;;;;;5014729;28;20049;-76
2024/03/16 05:58:12;;;;;;;0.00;0.00;;;;;;;;;;5013398;28;20391;-76
2024/03/16 06:00:39;;;;;;;0.20;0.10;;;;;;;;;;5020799;28;20025;-77
2024/03/16 06:03:05;;;;;;;0.17;0.10;;;;;;;;;;5013813;28;20041;-77
2024/03/16 06:05:38;;;;;;;0.28;0.20;;;;;;;;;;5013526;28;20030;-76
2024/03/16 06:08:04;;;;;;;0.45;0.40;;;;;;;;;;5018906;28;20032;-77
2024/03/16 06:10:34;;;;;;;0.30;0.30;;;;;;;;;;5015903;28;20515;-77
2024/03/16 06:13:00;;;;;;;0.57;0.57;;;;;;;;;;5013791;28;20026;-76
2024/03/16 06:15:26;;;;;;;1.98;1.30;;;;;;;;;;5005407;28;20097;-79
2024/03/16 06:17:52;;;;;;;2.33;1.98;;;;;;;;;;5025192;28;20574;-77
2024/03/16 06:20:19;;;;;;;2.38;2.17;;;;;;;;;;5021637;28;20133;-78
2024/03/16 06:22:45;;;;;;;2.35;1.70;;;;;;;;;;5014751;28;20041;-77
2024/03/16 06:25:13;;;;;;;1.50;1.33;;;;;;;;;;4997775;28;20030;-77
2024/03/16 06:27:54;;;;;;;2.13;1.92;;;;;;;;;;5033420;28;20018;-76
2024/03/16 06:30:26;;;;;;;3.13;2.03;;;;;;;;;;5027892;28;20018;-78
2024/03/16 06:33:05;;;;;;;2.05;1.85;;;;;;;;;;5024276;28;20092;-77
2024/03/16 06:35:41;;;;;;;2.15;1.48;;;;;;;;;;5022159;28;20033;-76
2024/03/16 06:38:07;;;;;;;1.10;1.00;;;;;;;;;;5022714;28;20036;-78
2024/03/16 06:40:34;;;;;;;1.23;0.60;;;;;;;;;;5022510;28;20022;-76
2024/03/16 06:43:00;;;;;;;0.93;0.28;;;;;;;;;;5038697;28;20033;-79
2024/03/16 06:45:26;;;;;;;0.20;0.13;;;;;;;;;;5024156;28;20491;-77
2024/03/16 06:47:53;;;;;;;0.50;0.30;;;;;;;;;;4998710;28;20022;-77
2024/03/16 06:50:21;;;;;;;0.70;0.70;;;;;;;;;;4997775;28;20028;-76
2024/03/16 06:52:47;;;;;;;0.82;0.82;;;;;;;;;;5024590;28;20054;-75
2024/03/16 06:55:16;;;;;;;0.80;0.80;;;;;;;;;;5032507;28;20057;-78
2024/03/16 06:57:42;;;;;;;3.03;2.03;;;;;;;;;;5031592;28;20046;-77
2024/03/16 07:00:11;;;;;;;1.70;1.23;;;;;;;;;;5016634;28;20072;-77
2024/03/16 07:02:38;;;;;;;0.60;0.60;;;;;;;;;;5016583;28;20055;-76
2024/03/16 07:05:04;;;;;;;0.50;0.50;;;;;;;;;;5016782;28;20025;-77
2024/03/16 07:07:30;;;;;;;0.73;0.57;;;;;;;;;;5019166;28;20030;-76
2024/03/16 07:09:57;;;;;;;0.10;0.10;;;;;;;;;;5017708;28;20587;-77
2024/03/16 07:12:23;;;;;;;0.40;0.20;;;;;;;;;;5004861;28;20052;-75
2024/03/16 07:14:50;;;;;;;0.63;0.30;;;;;;;;;;5022684;28;20014;-77
2024/03/16 07:17:16;;;;;;;0.20;0.20;;;;;;;;;;5015724;28;20034;-76
2024/03/16 07:19:42;;;;;;;0.45;0.30;;;;;;;;;;5018503;28;20103;-77
2024/03/16 07:22:08;;;;;;;0.30;0.30;;;;;;;;;;5014827;28;20029;-76
2024/03/16 07:24:34;;;;;;;0.10;0.10;;;;;;;;;;5005680;28;20112;-77
2024/03/16 07:27:01;;;;;;;0.32;0.32;;;;;;;;;;5015391;28;20022;-76
2024/03/16 07:29:28;;;;;;;0.25;0.25;;;;;;;;;;5022421;28;20091;-77
2024/03/16 07:31:54;;;;;;;0.75;0.30;;;;;;;;;;5018027;28;20042;-76
2024/03/16 07:34:21;;;;;;;0.57;0.43;;;;;;;;;;5019227;28;20033;-77
2024/03/16 07:36:48;;;;;;;0.32;0.17;;;;;;;;;;5022937;28;20022;-76
2024/03/16 07:39:15;;;;;;;0.35;0.20;;;;;;;;;;5014686;28;20057;-77
2024/03/16 07:41:41;;;;;;;0.30;0.30;;;;;;;;;;5014546;28;20503;-77
2024/03/16 07:44:07;;;;;;;0.77;0.40;;;;;;;;;;5016121;28;20044;-77
2024/03/16 07:46:33;;;;;;;0.70;0.20;;;;;;;;;;5003227;28;20046;-77
2024/03/16 07:49:00;;;;;;;0.95;0.30;;;;;;;;;;5015075;28;20105;-77
2024/03/16 07:51:28;;;;;;;0.57;0.20;;;;;;;;;;5014082;28;20030;-77
2024/03/16 07:53:58;;;;;;;0.25;0.25;;;;;;;;;;5018438;28;20029;-77
2024/03/16 07:56:25;;;;;;;0.20;0.20;;;;;;;;;;5017229;28;20593;-76
2024/03/16 07:58:51;;;;;;;0.25;0.20;;;;;;;;;;5014512;28;20024;-77
2024/03/16 08:01:17;;;;;;;0.22;0.22;;;;;;;;;;5013364;28;20033;-77
2024/03/16 08:03:44;;;;;;;0.40;0.40;;;;;;;;;;5013794;28;20022;-76
2024/03/16 08:06:10;;;;;;;0.38;0.20;;;;;;;;;;5019535;28;20041;-75
2024/03/16 08:08:37;;;;;;;0.90;0.30;;;;;;;;;;5014267;28;20137;-77
2024/03/16 08:11:07;;;;;;;0.20;0.10;;;;;;;;;;5027231;28;20022;-77
2024/03/16 08:13:34;;;;;;;0.20;0.20;;;;;;;;;;5016403;28;20018;-76
2024/03/16 08:16:00;;;;;;;1.55;0.10;;;;;;;;;;5022473;28;20033;-77
2024/03/16 08:18:26;;;;;;;0.35;0.20;;;;;;;;;;5018287;28;20071;-76
2024/03/16 08:20:59;;;;;;;0.17;0.15;;;;;;;;;;5025973;28;20013;-76
2024/03/16 08:23:25;;;;;;;0.57;0.20;;;;;;;;;;4999731;28;20033;-75
2024/03/16 08:25:51;;;;;;;3.55;0.40;;;;;;;;;;5018447;28;20503;-77
2024/03/16 08:28:17;;;;;;;0.57;0.22;;;;;;;;;;5018039;28;20109;-77
2024/03/16 08:30:44;;;;;;;0.57;0.30;;;;;;;;;;4995953;28;20504;-77
2024/03/16 08:33:10;;;;;;;1.42;0.40;;;;;;;;;;5023098;28;20451;-77
2024/03/16 08:35:36;;;;;;;0.40;0.30;;;;;;;;;;5014527;28;20451;-76
2024/03/16 08:38:02;;;;;;;1.25;0.22;;;;;;;;;;5024281;28;20025;-77
2024/03/16 08:40:28;;;;;;;0.47;0.43;;;;;;;;;;5025360;28;20152;-77
2024/03/16 08:42:54;;;;;;;0.22;0.20;;;;;;;;;;5022685;28;20029;-76
2024/03/16 08:45:20;;;;;;;0.13;0.13;;;;;;;;;;5023108;28;20085;-77
2024/03/16 08:47:47;;;;;;;1.23;0.20;;;;;;;;;;5021036;28;20045;-77
2024/03/16 08:50:13;;;;;;;2.13;0.20;;;;;;;;;;5028451;28;20037;-77
2024/03/16 08:52:39;;;;;;;0.45;0.22;;;;;;;;;;5022411;28;20388;-76
2024/03/16 08:55:05;;;;;;;0.20;0.15;;;;;;;;;;5028344;28;20092;-75
2024/03/16 08:57:32;;;;;;;0.20;0.20;;;;;;;;;;5024302;28;20052;-76
2024/03/16 08:59:58;;;;;;;0.85;0.20;;;;;;;;;;5021292;28;20056;-76
2024/03/16 09:02:24;;;;;;;1.65;0.32;;;;;;;;;;5015959;28;20018;-77
2024/03/16 09:04:56;;;;;;;0.52;0.30;;;;;;;;;;5026127;28;20101;-77
2024/03/16 09:07:23;;;;;;;0.75;0.38;;;;;;;;;;5028435;28;20032;-77
2024/03/16 09:09:52;;;;;;;0.60;0.30;;;;;;;;;;5016125;28;20030;-77
2024/03/16 09:12:18;;;;;;;1.05;0.43;;;;;;;;;;5021613;28;20072;-77
2024/03/16 09:14:44;;;;;;;0.25;0.25;;;;;;;;;;5000978;28;20038;-78
2024/03/16 09:17:10;;;;;;;0.50;0.30;;;;;;;;;;5021213;28;20037;-77
2024/03/16 09:19:37;;;;;;;0.90;0.55;;;;;;;;;;5014290;28;20032;-78
2024/03/16 09:22:03;;;;;;;0.65;0.40;;;;;;;;;;5014949;28;20052;-77
2024/03/16 09:24:29;;;;;;;0.20;0.20;;;;;;;;;;5025197;28;20061;-76
2024/03/16 09:26:55;;;;;;;1.02;0.52;;;;;;;;;;5008311;28;20025;-77
2024/03/16 09:29:21;;;;;;;1.27;0.30;;;;;;;;;;5034604;28;20113;-77
2024/03/16 09:31:47;;;;;;;0.73;0.50;;;;;;;;;;5016066;28;20018;-77
2024/03/16 09:34:14;;;;;;;3.08;0.45;;;;;;;;;;5002515;28;20030;-77
2024/03/16 09:36:40;;;;;;;3.28;0.32;;;;;;;;;;5017305;28;20101;-78
2024/03/16 09:39:10;;;;;;;2.05;0.22;;;;;;;;;;4998270;28;20383;-77
2024/03/16 09:41:39;;;;;;;2.80;0.50;;;;;;;;;;5017223;28;20028;-78
2024/03/16 09:44:11;;;;;;;1.23;0.55;;;;;;;;;;5020534;28;20033;-77
2024/03/16 09:46:42;;;;;;;1.45;0.35;;;;;;;;;;5032295;28;20030;-77
2024/03/16 09:49:09;;;;;;;1.15;0.45;;;;;;;;;;5015550;28;20025;-77
2024/03/16 09:51:36;;;;;;;1.60;0.50;;;;;;;;;;5018685;28;20464;-78
2024/03/16 09:54:08;;;;;;;3.50;0.70;;;;;;;;;;5018346;28;20548;-75
2024/03/16 09:56:34;;;;;;;0.40;0.40;;;;;;;;;;5020155;28;20022;-80
2024/03/16 09:59:01;;;;;;;2.45;0.65;;;;;;;;;;5022455;28;20088;-77
2024/03/16 10:01:29;;;;;;;1.48;0.60;;;;;;;;;;5015499;28;20055;-77
2024/03/16 10:03:55;;;;;;;1.92;0.70;;;;;;;;;;5017093;28;20022;-77
2024/03/16 10:06:22;;;;;;;2.75;0.70;;;;;;;;;;5023921;28;20085;-77
2024/03/16 10:08:48;;;;;;;1.55;0.57;;;;;;;;;;5017896;28;20088;-77
2024/03/16 10:11:15;;;;;;;2.72;1.15;;;;;;;;;;5025149;28;20037;-76
2024/03/16 10:14:04;;;;;;;2.30;0.50;;;;;;;;;;5026038;28;20037;-76
2024/03/16 10:16:35;;;;;;;1.90;0.75;;;;;;;;;;5024049;28;20021;-77
2024/03/16 10:19:01;;;;;;;0.95;0.43;;;;;;;;;;5028799;28;20048;-77
2024/03/16 10:21:29;;;;;;;2.15;0.60;;;;;;;;;;5035797;28;20465;-77
2024/03/16 10:23:58;;;;;;;1.10;0.68;;;;;;;;;;5028808;28;20431;-77
2024/03/16 10:26:24;;;;;;;1.40;0.55;;;;;;;;;;5028498;28;20026;-78
2024/03/16 10:28:50;;;;;;;1.88;0.60;;;;;;;;;;5023230;28;20021;-77
2024/03/16 10:31:19;;;;;;;1.35;0.65;;;;;;;;;;5019696;28;20032;-77
2024/03/16 10:33:45;;;;;;;1.23;0.68;;;;;;;;;;5030521;28;20129;-77
2024/03/16 10:36:18;;;;;;;1.55;0.60;;;;;;;;;;5032290;28;20089;-75
2024/03/16 10:38:45;;;;;;;2.55;0.60;;;;;;;;;;5039649;28;20120;-77
2024/03/16 10:41:12;;;;;;;1.00;0.55;;;;;;;;;;5037644;28;20303;-76
2024/03/16 10:43:38;;;;;;;5.43;0.73;;;;;;;;;;5024684;28;20021;-77
2024/03/16 10:46:10;;;;;;;1.10;0.45;;;;;;;;;;5026987;28;20478;-77
2024/03/16 10:48:37;;;;;;;4.47;0.65;;;;;;;;;;5027076;28;20452;-78
2024/03/16 10:51:07;;;;;;;0.90;0.43;;;;;;;;;;4998356;28;20030;-76
2024/03/16 10:53:34;;;;;;;1.48;0.40;;;;;;;;;;5034101;28;20025;-76
2024/03/16 10:56:02;;;;;;;0.63;0.55;;;;;;;;;;5040050;28;20025;-76
2024/03/16 10:58:29;;;;;;;1.98;0.60;;;;;;;;;;5027779;28;20379;-76
2024/03/16 11:00:56;;;;;;;1.73;0.68;;;;;;;;;;5009092;28;20051;-77
2024/03/16 11:05:54;;;;;;;0.95;0.45;;;;;;;;;;5025158;28;20034;-76
2024/03/16 11:08:53;;;;;;;1.13;0.55;;;;;;;;;;5017264;28;20026;-77
2024/03/16 11:11:23;;;;;;;1.02;0.30;;;;;;;;;;5033721;28;20014;-76
2024/03/16 11:13:58;;;;;;;1.67;0.70;;;;;;;;;;5009044;28;20396;-77
2024/03/16 11:16:28;;;;;;;2.50;0.70;;;;;;;;;;5019765;28;20100;-76
2024/03/16 11:19:01;;;;;;;2.50;0.70;;;;;;;;;;5027940;28;20428;-76
2024/03/16 11:21:28;;;;;;;0.68;0.47;;;;;;;;;;4997399;28;20022;-79
2024/03/16 11:23:54;;;;;;;2.28;0.80;;;;;;;;;;5018979;28;20014;-78
2024/03/16 11:26:31;;;;;;;1.20;0.50;;;;;;;;;;5026838;28;20519;-77
2024/03/16 11:29:09;;;;;;;0.50;0.50;;;;;;;;;;5025914;28;20503;-76
2024/03/16 11:31:39;;;;;;;0.77;0.40;;;;;;;;;;5000256;28;20025;-77
2024/03/16 11:34:08;;;;;;;0.85;0.50;;;;;;;;;;5017926;28;20025;-77
2024/03/16 11:36:38;;;;;;;0.70;0.50;;;;;;;;;;5023240;28;20115;-76
2024/03/16 11:39:14;;;;;;;0.40;0.30;;;;;;;;;;5043483;28;20082;-77
2024/03/16 11:41:45;;;;;;;0.68;0.60;;;;;;;;;;5019085;28;20041;-76
2024/03/16 11:44:17;;;;;;;2.30;0.40;;;;;;;;;;5029750;28;20040;-76
2024/03/16 11:46:44;;;;;;;0.43;0.30;;;;;;;;;;5045634;28;20025;-75
2024/03/16 11:49:14;;;;;;;0.80;0.40;;;;;;;;;;5037430;28;20048;-76
2024/03/16 11:51:41;;;;;;;1.55;0.45;;;;;;;;;;5034298;28;20018;-75
2024/03/16 11:54:08;;;;;;;0.55;0.20;;;;;;;;;;5025726;28;20030;-77
2024/03/16 11:56:35;;;;;;;0.40;0.40;;;;;;;;;;5016086;28;20025;-76
2024/03/16 11:59:05;;;;;;;0.80;0.43;;;;;;;;;;5014855;28;20125;-77
2024/03/16 12:01:33;;;;;;;0.40;0.40;;;;;;;;;;5022878;28;20018;-77
2024/03/16 12:03:59;;;;;;;0.70;0.32;;;;;;;;;;5016649;28;20111;-76
2024/03/16 12:06:27;;;;;;;0.73;0.40;;;;;;;;;;5024304;28;20425;-77
2024/03/16 12:08:53;;;;;;;0.88;0.40;;;;;;;;;;5004438;28;20392;-76
2024/03/16 12:11:19;;;;;;;0.38;0.35;;;;;;;;;;5014084;28;20036;-77
2024/03/16 12:13:46;;;;;;;0.40;0.40;;;;;;;;;;5024511;28;20036;-76
2024/03/16 12:16:12;;;;;;;3.78;0.50;;;;;;;;;;5016841;28;20052;-76
2024/03/16 12:18:43;;;;;;;0.40;0.40;;;;;;;;;;5034372;28;20364;-77
2024/03/16 12:21:09;;;;;;;0.40;0.40;;;;;;;;;;5017969;28;20029;-77
2024/03/16 12:23:38;;;;;;;0.77;0.50;;;;;;;;;;5024508;28;20080;-77
2024/03/16 12:26:09;;;;;;;1.35;0.60;;;;;;;;;;5018415;28;20053;-76
2024/03/16 12:28:35;;;;;;;0.70;0.45;;;;;;;;;;5021581;28;20084;-77
2024/03/16 12:31:01;;;;;;;1.20;0.40;;;;;;;;;;5019022;28;20041;-77
2024/03/16 12:33:27;;;;;;;1.20;0.43;;;;;;;;;;5012886;28;20033;-76
2024/03/16 12:35:54;;;;;;;1.73;0.80;;;;;;;;;;5014476;28;20472;-77
2024/03/16 12:38:20;;;;;;;0.82;0.60;;;;;;;;;;5016989;28;20475;-77
2024/03/16 12:40:47;;;;;;;0.85;0.50;;;;;;;;;;5014475;28;20085;-79
2024/03/16 12:43:13;;;;;;;1.10;0.52;;;;;;;;;;5001506;28;20034;-79
2024/03/16 12:45:39;;;;;;;0.75;0.70;;;;;;;;;;5017817;28;20370;-79
2024/03/16 12:48:06;;;;;;;1.58;0.75;;;;;;;;;;5017799;28;20022;-79
2024/03/16 12:50:32;;;;;;;0.57;0.57;;;;;;;;;;5013505;28;20021;-77
2024/03/16 12:52:58;;;;;;;4.18;0.77;;;;;;;;;;5015384;28;20038;-77
2024/03/16 12:55:25;;;;;;;1.08;0.73;;;;;;;;;;5022595;28;20530;-77
2024/03/16 12:57:51;;;;;;;1.33;0.60;;;;;;;;;;5035513;28;20018;-78
2024/03/16 13:00:17;;;;;;;1.40;0.70;;;;;;;;;;5017001;28;20051;-78
2024/03/16 13:02:47;;;;;;;2.75;1.38;;;;;;;;;;5002447;28;20022;-77
2024/03/16 13:05:13;;;;;;;0.98;0.45;;;;;;;;;;5015580;28;20033;-78
2024/03/16 13:07:40;;;;;;;2.10;0.63;;;;;;;;;;5024183;28;20021;-77
2024/03/16 13:10:07;;;;;;;1.55;0.40;;;;;;;;;;5021063;28;20022;-78
2024/03/16 13:12:33;;;;;;;1.45;1.13;;;;;;;;;;5023749;28;20021;-78
2024/03/16 13:15:00;;;;;;;0.65;0.13;;;;;;;;;;5025825;28;20026;-78
2024/03/16 13:17:26;;;;;;;0.50;0.20;;;;;;;;;;5006516;28;20241;-77
2024/03/16 13:19:53;;;;;;;1.55;0.10;;;;;;;;;;5002030;28;20132;-78
2024/03/16 13:22:19;;;;;;;0.10;0.10;;;;;;;;;;5019899;28;20038;-79
2024/03/16 13:24:45;;;;;;;2.25;0.28;;;;;;;;;;5020433;28;20022;-77
2024/03/16 13:27:11;;;;;;;1.17;0.30;;;;;;;;;;5018784;28;20109;-76
2024/03/16 13:29:38;;;;;;;0.68;0.30;;;;;;;;;;5017255;28;20022;-78
2024/03/16 13:32:05;;;;;;;0.45;0.20;;;;;;;;;;5022190;28;20431;-78
2024/03/16 13:34:32;;;;;;;1.00;0.20;;;;;;;;;;5022686;28;20522;-79
2024/03/16 13:37:02;;;;;;;0.20;0.20;;;;;;;;;;5010805;28;20025;-78
2024/03/16 13:39:30;;;;;;;0.57;0.30;;;;;;;;;;5024403;28;20037;-78
2024/03/16 13:42:01;;;;;;;0.93;0.20;;;;;;;;;;5026148;28;20202;-78
2024/03/16 13:44:28;;;;;;;0.40;0.40;;;;;;;;;;5022414;28;20033;-78
2024/03/16 13:46:56;;;;;;;0.55;0.40;;;;;;;;;;5025529;28;20500;-78
2024/03/16 13:49:22;;;;;;;2.47;0.40;;;;;;;;;;5028570;28;20030;-78
2024/03/16 13:51:48;;;;;;;0.20;0.20;;;;;;;;;;5028528;28;20040;-77
2024/03/16 13:54:14;;;;;;;1.33;0.40;;;;;;;;;;5030104;28;20094;-78
2024/03/16 13:56:40;;;;;;;0.57;0.30;;;;;;;;;;5024186;28;20025;-78
2024/03/16 13:59:07;;;;;;;1.35;0.50;;;;;;;;;;5019340;28;20036;-77
2024/03/16 14:01:33;;;;;;;0.47;0.20;;;;;;;;;;5023257;28;20817;-77
2024/03/16 14:04:01;;;;;;;0.38;0.30;;;;;;;;;;5025525;28;20065;-78
2024/03/16 14:06:28;;;;;;;0.40;0.30;;;;;;;;;;5022453;28;20080;-78
2024/03/16 14:08:54;;;;;;;0.60;0.50;;;;;;;;;;5029405;28;20408;-79
2024/03/16 14:11:21;;;;;;;0.43;0.30;;;;;;;;;;5024286;28;20029;-77
2024/03/16 14:13:47;;;;;;;0.40;0.40;;;;;;;;;;5023095;28;20033;-78
2024/03/16 14:16:14;;;;;;;0.82;0.40;;;;;;;;;;5025182;28;20022;-77
2024/03/16 14:18:40;;;;;;;1.80;0.40;;;;;;;;;;5026566;28;20381;-78
2024/03/16 14:21:08;;;;;;;0.63;0.40;;;;;;;;;;5024619;28;20014;-77
2024/03/16 14:23:35;;;;;;;2.10;0.30;;;;;;;;;;5026187;28;20025;-77
2024/03/16 14:26:02;;;;;;;0.52;0.40;;;;;;;;;;5020868;28;20030;-78
2024/03/16 14:28:31;;;;;;;0.57;0.38;;;;;;;;;;5034653;28;20033;-78
2024/03/16 14:30:58;;;;;;;0.75;0.40;;;;;;;;;;5021550;28;20480;-78
2024/03/16 14:33:24;;;;;;;0.93;0.30;;;;;;;;;;5018285;28;20056;-78
2024/03/16 14:35:51;;;;;;;1.00;0.70;;;;;;;;;;5016840;28;20072;-78
2024/03/16 14:38:20;;;;;;;0.93;0.30;;;;;;;;;;5024338;28;20029;-76
2024/03/16 14:40:46;;;;;;;0.50;0.30;;;;;;;;;;5018711;28;20030;-77
2024/03/16 14:43:16;;;;;;;0.38;0.30;;;;;;;;;;5020895;28;20108;-78
2024/03/16 14:45:43;;;;;;;0.40;0.40;;;;;;;;;;5026742;28;20032;-77
2024/03/16 14:48:09;;;;;;;2.35;0.68;;;;;;;;;;5018695;28;20508;-77
2024/03/16 14:50:36;;;;;;;0.63;0.50;;;;;;;;;;5022049;28;20028;-77